CANO2: Clear Boggy Creek abv Caney Creek nr Caney, OK

                                SHEF ID:       CANO2     Clear Boggy Creek abv Caney Cree
STATION TYPE:
Regulating: Stage = 19.00, Flow = 2600

STAGE RIV-FLOW VOLTAGE BAT-LOAD
ft cfs volt volt
Ccp-Rev Ccp-Rev Ccp-Rev Ccp-Rev
(America/Chicago)
04/27 00:00 21.07 3370 12.65 ----
04/27 01:00 20.64 3210 12.65 ----
04/27 02:00 20.17 3030 12.64 ----
04/27 03:00 19.75 2880 12.62 ----
04/27 04:00 19.35 2730 12.61 ----
04/27 05:00 18.98 2590 12.61 ----
04/27 06:00 18.62 2460 12.60 ----
04/27 07:00 18.30 2350 12.59 ----
04/27 08:00 18.02 2250 12.66 ----
04/27 09:00 17.75 2150 13.09 ----
04/27 10:00 17.49 2060 13.44 ----
04/27 11:00 17.26 1980 13.52 ----
04/27 12:00 17.01 1890 13.70 ----
04/27 13:00 16.81 1820 13.66 ----
04/27 14:00 16.60 1750 13.65 ----
04/27 15:00 16.37 1670 13.26 ----
04/27 16:00 16.19 1600 13.24 ----
04/27 17:00 16.00 1540 13.21 ----
04/27 18:00 15.80 1470 13.22 ----
04/27 19:00 15.60 1400 13.10 ----
04/27 20:00 15.44 1350 12.98 ----
04/27 21:00 15.30 1300 12.83 ----
04/27 22:00 15.15 1250 12.73 ----
04/27 23:00 ---- ---- ---- ----
Data processed at Tue 28Apr2026 04:01 GMT

NOTICE: If you are parsing this page

Please convert to using our Data API. Starting early 2026 we will be migrating to: https://water.usace.army.mil with modern pages rendered in JavaScript. When this migration completes you will no longer be able to scrape this page! CWMSDataAPI (CDA)

Timeseries IDs (TSIDs)

TSIDs used from left to right in the data table
CANE.Stage.Inst.1Hour.0.Ccp-Rev
CANE.Flow.Inst.1Hour.0.Ccp-Rev
CANE.Volt-Battery.Inst.1Hour.0.Ccp-Rev
CANE.Volt-Battery Load.Inst.1Hour.0.Ccp-Rev

                            

All information presented herein is the property of the government of the United States of America and may be revised or deleted at any time without prior notice. Dissemination of this information without the expressed written consent of the Public Affairs Office, Tulsa District U.S. Army Corps of Engineers is strictly prohibited. These data are gathered electronically and, as presented, have NOT undergone any form of quality control. These data are NOT guaranteed to be valid or correct.